Time;durP1;ratioP1;P1;durP2;ratioP2;P2;SDS_P1;SDS_P2;PMS_P1;PMS_P2;Temp;Humidity;BMP_temperature;BMP_pressure;BME280_temperature;BME280_humidity;BME280_pressure;Samples;Min_cycle;Max_cycle;Signal;HPM_P1;HPM_P2
2023/05/13 00:01:44;;;;;;;11.35;7.95;;;11.70;99.90;;;;;;5038108;28;20073;-65
2023/05/13 00:04:09;;;;;;;10.15;8.40;;;11.70;99.90;;;;;;5035500;28;20719;-65
2023/05/13 00:06:35;;;;;;;11.25;8.73;;;11.70;99.90;;;;;;5036702;28;20063;-64
2023/05/13 00:09:01;;;;;;;10.77;7.82;;;11.70;99.90;;;;;;5036479;28;20086;-65
2023/05/13 00:11:26;;;;;;;11.23;8.48;;;11.60;99.90;;;;;;5040162;28;20322;-64
2023/05/13 00:13:52;;;;;;;11.43;7.80;;;11.60;99.90;;;;;;5072881;28;20045;-64
2023/05/13 00:16:18;;;;;;;11.38;8.48;;;11.60;99.90;;;;;;5072585;28;20045;-64
2023/05/13 00:18:43;;;;;;;11.45;8.43;;;11.60;99.90;;;;;;5033755;28;20040;-64
2023/05/13 00:21:09;;;;;;;11.52;8.18;;;11.50;99.90;;;;;;5069720;28;20039;-64
2023/05/13 00:23:35;;;;;;;9.35;8.32;;;11.50;99.90;;;;;;5041230;28;20041;-64
2023/05/13 00:26:00;;;;;;;10.93;8.90;;;11.50;99.90;;;;;;5034702;28;20049;-64
2023/05/13 00:28:26;;;;;;;10.18;8.48;;;11.50;99.90;;;;;;5036439;28;20033;-64
2023/05/13 00:30:51;;;;;;;15.40;8.60;;;11.40;99.90;;;;;;5037504;28;20755;-64
2023/05/13 00:33:17;;;;;;;12.25;8.80;;;11.40;99.90;;;;;;5062890;28;20488;-64
2023/05/13 00:35:43;;;;;;;9.82;8.70;;;11.40;99.90;;;;;;5038090;28;20060;-64
2023/05/13 00:38:09;;;;;;;12.25;8.95;;;11.40;99.90;;;;;;5034664;28;20081;-64
2023/05/13 00:40:38;;;;;;;10.60;8.95;;;11.40;99.90;;;;;;5038442;28;20048;-64
2023/05/13 00:43:04;;;;;;;13.23;9.40;;;11.30;99.90;;;;;;5035820;28;20059;-65
2023/05/13 00:45:30;;;;;;;14.57;9.07;;;11.30;99.90;;;;;;5073600;28;20041;-64
2023/05/13 00:47:56;;;;;;;13.13;9.48;;;11.30;99.90;;;;;;5039091;28;20480;-64
2023/05/13 00:50:22;;;;;;;11.90;9.40;;;11.20;99.90;;;;;;5019936;28;20100;-65
2023/05/13 00:52:49;;;;;;;15.55;9.00;;;11.20;99.90;;;;;;5041938;28;20049;-64
2023/05/13 00:55:15;;;;;;;13.80;10.02;;;11.20;99.90;;;;;;5038112;28;20123;-64
2023/05/13 00:57:41;;;;;;;12.75;9.65;;;11.20;99.90;;;;;;5042213;28;20033;-65
2023/05/13 01:00:09;;;;;;;16.08;10.40;;;11.20;99.90;;;;;;5039762;28;20036;-65
2023/05/13 01:02:40;;;;;;;12.88;10.23;;;11.10;99.90;;;;;;5038452;28;20479;-65
2023/05/13 01:05:25;;;;;;;13.43;10.02;;;11.10;99.90;;;;;;5037042;28;20041;-64
2023/05/13 01:08:20;;;;;;;13.07;10.60;;;11.10;99.90;;;;;;5040676;28;20128;-64
2023/05/13 01:10:50;;;;;;;15.57;11.20;;;11.10;99.90;;;;;;5047478;28;20045;-65
2023/05/13 01:13:25;;;;;;;16.60;10.77;;;11.10;99.90;;;;;;5071723;28;20044;-64
2023/05/13 01:15:58;;;;;;;16.13;11.13;;;11.00;99.90;;;;;;5039935;28;20487;-64
2023/05/13 01:18:34;;;;;;;13.18;10.45;;;11.00;99.90;;;;;;5037927;28;20120;-64
2023/05/13 01:21:02;;;;;;;16.58;10.55;;;11.00;99.90;;;;;;5042261;28;20049;-65
2023/05/13 01:23:27;;;;;;;14.57;11.30;;;11.00;99.90;;;;;;5040227;28;20041;-64
2023/05/13 01:25:53;;;;;;;15.10;10.70;;;10.90;99.90;;;;;;5038809;28;21088;-64
2023/05/13 01:28:19;;;;;;;15.77;11.00;;;10.90;99.90;;;;;;5071054;28;20065;-64
2023/05/13 01:30:46;;;;;;;13.00;10.90;;;10.90;99.90;;;;;;5033835;28;20503;-64
2023/05/13 01:33:12;;;;;;;13.85;10.98;;;10.90;99.90;;;;;;5036805;28;20048;-64
2023/05/13 01:35:38;;;;;;;13.48;10.98;;;10.80;99.90;;;;;;5073098;28;20045;-64
2023/05/13 01:38:04;;;;;;;15.52;11.20;;;10.80;99.90;;;;;;5034590;28;20138;-64
2023/05/13 01:40:31;;;;;;;19.70;11.68;;;10.80;99.90;;;;;;5039351;28;20144;-64
2023/05/13 01:42:57;;;;;;;15.27;10.88;;;10.80;99.90;;;;;;5032533;28;20111;-64
2023/05/13 01:45:22;;;;;;;14.65;11.55;;;10.80;99.90;;;;;;5043626;28;20550;-64
2023/05/13 01:47:48;;;;;;;14.20;11.95;;;10.80;99.90;;;;;;5039483;28;20051;-65
2023/05/13 01:50:13;;;;;;;18.58;12.10;;;10.80;99.90;;;;;;5038560;28;20132;-64
2023/05/13 01:52:39;;;;;;;13.75;11.35;;;10.80;99.90;;;;;;5035452;28;20075;-65
2023/05/13 01:55:05;;;;;;;15.18;11.75;;;10.80;99.90;;;;;;5069713;28;20044;-65
2023/05/13 01:57:30;;;;;;;14.32;11.27;;;10.80;99.90;;;;;;5038411;28;20194;-65
2023/05/13 01:59:56;;;;;;;15.43;12.55;;;10.80;99.90;;;;;;5041101;28;20037;-64
2023/05/13 02:02:21;;;;;;;16.65;11.30;;;10.80;99.90;;;;;;5036891;28;20069;-64
2023/05/13 02:04:47;;;;;;;14.88;11.70;;;10.70;99.90;;;;;;5038949;28;20043;-64
2023/05/13 02:07:12;;;;;;;15.00;12.10;;;10.70;99.90;;;;;;5038723;28;20048;-64
2023/05/13 02:09:38;;;;;;;18.40;12.73;;;10.60;99.90;;;;;;5041173;28;20051;-64
2023/05/13 02:12:04;;;;;;;13.50;11.77;;;10.60;99.90;;;;;;5034675;28;20370;-64
2023/05/13 02:14:30;;;;;;;15.32;11.88;;;10.60;99.90;;;;;;5035395;28;20044;-64
2023/05/13 02:16:55;;;;;;;16.00;12.15;;;10.60;99.90;;;;;;5040081;28;20049;-64
2023/05/13 02:19:21;;;;;;;15.73;12.05;;;10.60;99.90;;;;;;5030586;28;20087;-64
2023/05/13 02:21:46;;;;;;;17.42;12.38;;;10.50;99.90;;;;;;5036162;28;20837;-64
2023/05/13 02:24:13;;;;;;;19.75;12.93;;;10.50;99.90;;;;;;5037657;28;20065;-64
2023/05/13 02:26:40;;;;;;;15.63;11.80;;;10.50;99.90;;;;;;5037333;28;20395;-64
2023/05/13 02:29:06;;;;;;;17.13;12.43;;;10.40;99.90;;;;;;5036194;28;20044;-64
2023/05/13 02:31:31;;;;;;;15.38;12.15;;;10.40;99.90;;;;;;5037085;28;20045;-64
2023/05/13 02:33:57;;;;;;;19.15;13.10;;;10.40;99.90;;;;;;5030393;28;20049;-64
2023/05/13 02:36:22;;;;;;;16.50;12.27;;;10.40;99.90;;;;;;5042417;28;20047;-64
2023/05/13 02:38:48;;;;;;;18.85;12.30;;;10.40;99.90;;;;;;5035133;28;20167;-64
2023/05/13 02:41:13;;;;;;;17.60;12.68;;;10.40;99.90;;;;;;5036117;28;20123;-63
2023/05/13 02:43:40;;;;;;;16.83;13.23;;;10.30;99.90;;;;;;5041217;28;20068;-65
2023/05/13 02:46:05;;;;;;;17.27;13.35;;;10.30;99.90;;;;;;5040555;28;20069;-64
2023/05/13 02:48:31;;;;;;;14.23;12.40;;;10.30;99.90;;;;;;5039022;28;20504;-65
2023/05/13 02:50:56;;;;;;;19.27;12.90;;;10.30;99.90;;;;;;5039955;28;20929;-64
2023/05/13 02:53:22;;;;;;;17.92;12.60;;;10.30;99.90;;;;;;5033304;28;20037;-64
2023/05/13 02:55:48;;;;;;;17.90;13.30;;;10.30;99.90;;;;;;5037942;28;20051;-65
2023/05/13 02:58:14;;;;;;;16.70;12.65;;;10.20;99.90;;;;;;5038249;28;20044;-64
2023/05/13 03:00:40;;;;;;;19.77;12.60;;;10.20;99.90;;;;;;5042640;28;20037;-64
2023/05/13 03:03:05;;;;;;;15.05;12.18;;;10.20;99.90;;;;;;5036177;28;20249;-64
2023/05/13 03:05:31;;;;;;;17.83;13.35;;;10.10;99.90;;;;;;5036295;28;20381;-64
2023/05/13 03:07:57;;;;;;;15.63;12.55;;;10.10;99.90;;;;;;5038876;28;20400;-64
2023/05/13 03:10:22;;;;;;;25.00;13.82;;;10.10;99.90;;;;;;5034409;28;20032;-64
2023/05/13 03:12:49;;;;;;;19.23;13.40;;;10.10;99.90;;;;;;5034108;28;20794;-64
2023/05/13 03:15:15;;;;;;;22.85;14.63;;;10.00;99.90;;;;;;5039747;28;20041;-64
2023/05/13 03:17:41;;;;;;;18.98;14.40;;;10.00;99.90;;;;;;5039701;28;20040;-64
2023/05/13 03:20:07;;;;;;;18.02;14.50;;;10.00;99.90;;;;;;5036693;28;20514;-65
2023/05/13 03:22:32;;;;;;;19.70;14.40;;;9.90;99.90;;;;;;5033147;28;20594;-65
2023/05/13 03:24:58;;;;;;;19.42;14.55;;;9.90;99.90;;;;;;5035902;28;20040;-64
2023/05/13 03:27:24;;;;;;;19.88;14.32;;;9.90;99.90;;;;;;5034854;28;20066;-64
2023/05/13 03:29:49;;;;;;;21.17;15.27;;;9.90;99.90;;;;;;5036421;28;20110;-64
2023/05/13 03:32:15;;;;;;;20.92;14.50;;;9.90;99.90;;;;;;5035344;28;20036;-65
2023/05/13 03:34:41;;;;;;;19.08;14.82;;;9.90;99.90;;;;;;5036908;28;20087;-65
2023/05/13 03:37:07;;;;;;;18.95;14.82;;;9.90;99.90;;;;;;5039192;28;20037;-65
2023/05/13 03:39:33;;;;;;;18.45;15.10;;;9.90;99.90;;;;;;5035367;28;20373;-64
2023/05/13 03:41:58;;;;;;;22.85;15.57;;;9.90;99.90;;;;;;5032650;28;20056;-64
2023/05/13 03:44:24;;;;;;;20.75;15.60;;;9.90;99.90;;;;;;5066040;28;20037;-64
2023/05/13 03:46:49;;;;;;;18.60;14.48;;;9.90;99.90;;;;;;5036527;28;20044;-65
2023/05/13 03:49:15;;;;;;;20.25;14.70;;;9.90;99.90;;;;;;5031950;28;20496;-65
2023/05/13 03:51:41;;;;;;;24.88;15.05;;;9.90;99.90;;;;;;5035531;28;20045;-65
2023/05/13 03:54:06;;;;;;;20.50;15.50;;;9.90;99.90;;;;;;5033916;28;20076;-63
2023/05/13 03:56:32;;;;;;;19.67;14.48;;;9.90;99.90;;;;;;5036832;28;20037;-65
2023/05/13 03:58:57;;;;;;;23.02;15.18;;;9.90;99.90;;;;;;5034819;28;20159;-65
2023/05/13 04:01:23;;;;;;;19.65;14.60;;;9.90;99.90;;;;;;5040594;28;20095;-65
2023/05/13 04:03:49;;;;;;;22.25;14.48;;;9.90;99.90;;;;;;5035468;28;20072;-64
2023/05/13 04:06:14;;;;;;;18.92;14.40;;;9.90;99.90;;;;;;5037444;28;20117;-64
2023/05/13 04:08:40;;;;;;;18.45;14.95;;;9.90;99.90;;;;;;5038590;28;20037;-65
2023/05/13 04:11:06;;;;;;;21.90;14.70;;;9.90;99.90;;;;;;5037578;28;20443;-64
2023/05/13 04:13:35;;;;;;;20.00;15.35;;;9.90;99.90;;;;;;5035519;28;20041;-65
2023/05/13 04:16:01;;;;;;;19.63;15.02;;;9.90;99.90;;;;;;5037797;28;20076;-65
2023/05/13 04:18:29;;;;;;;19.48;14.55;;;9.90;99.90;;;;;;5035216;28;20054;-64
2023/05/13 04:20:55;;;;;;;18.13;14.43;;;10.00;99.90;;;;;;5041763;28;20041;-64
2023/05/13 04:23:20;;;;;;;20.92;15.25;;;10.00;99.90;;;;;;5038761;28;20040;-64
2023/05/13 04:25:51;;;;;;;21.35;14.38;;;10.00;99.90;;;;;;5041520;28;20034;-64
2023/05/13 04:28:17;;;;;;;19.77;14.98;;;10.10;99.90;;;;;;5049269;28;20050;-64
2023/05/13 04:30:43;;;;;;;19.88;14.70;;;10.10;99.90;;;;;;5044021;28;20488;-64
2023/05/13 04:33:08;;;;;;;20.55;14.63;;;10.10;99.90;;;;;;5037026;28;20052;-65
2023/05/13 04:35:34;;;;;;;19.90;14.77;;;10.10;99.90;;;;;;5078007;28;20040;-64
2023/05/13 04:38:00;;;;;;;22.15;15.52;;;10.20;99.90;;;;;;5033596;28;20048;-65
2023/05/13 04:40:25;;;;;;;20.50;15.75;;;10.20;99.90;;;;;;5037011;28;20132;-64
2023/05/13 04:42:53;;;;;;;23.48;16.20;;;10.30;99.90;;;;;;5039062;28;20078;-65
2023/05/13 04:45:19;;;;;;;21.20;15.15;;;10.30;99.90;;;;;;5044191;28;20037;-64
2023/05/13 04:47:45;;;;;;;24.50;14.98;;;10.40;99.90;;;;;;5040537;28;20377;-65
2023/05/13 04:50:11;;;;;;;21.52;14.88;;;10.40;99.90;;;;;;5038544;28;20041;-64
2023/05/13 04:52:37;;;;;;;22.85;16.48;;;10.50;99.90;;;;;;5039097;28;20052;-65
2023/05/13 04:55:02;;;;;;;22.00;15.27;;;10.50;99.90;;;;;;5071242;28;20029;-64
2023/05/13 04:57:28;;;;;;;22.45;15.60;;;10.50;99.90;;;;;;5038198;28;20051;-64
2023/05/13 04:59:53;;;;;;;21.17;15.82;;;10.60;99.90;;;;;;5037703;28;20396;-65
2023/05/13 05:02:19;;;;;;;22.10;15.75;;;10.60;99.90;;;;;;5037987;28;20446;-65
2023/05/13 05:04:45;;;;;;;22.25;15.40;;;10.70;99.90;;;;;;5041546;28;20369;-65
2023/05/13 05:07:10;;;;;;;22.65;15.93;;;10.70;99.90;;;;;;5041040;28;20376;-64
2023/05/13 05:09:36;;;;;;;22.55;15.82;;;10.80;99.90;;;;;;5038507;28;20591;-64
2023/05/13 05:12:01;;;;;;;22.33;14.82;;;10.80;99.90;;;;;;5037596;28;20033;-64
2023/05/13 05:14:27;;;;;;;20.55;15.82;;;10.90;99.90;;;;;;5042283;28;20664;-65
2023/05/13 05:16:52;;;;;;;21.65;15.48;;;10.90;99.90;;;;;;5040489;28;20123;-65
2023/05/13 05:19:22;;;;;;;20.83;16.08;;;11.00;99.90;;;;;;5034442;28;20084;-64
2023/05/13 05:21:51;;;;;;;19.83;15.18;;;11.10;99.90;;;;;;5040369;28;20168;-64
2023/05/13 05:24:17;;;;;;;24.98;16.92;;;11.10;99.90;;;;;;5041982;28;20155;-65
2023/05/13 05:26:42;;;;;;;23.45;15.55;;;11.20;99.90;;;;;;5040278;28;20400;-65
2023/05/13 05:29:08;;;;;;;21.75;15.50;;;11.30;99.90;;;;;;5036009;28;20045;-64
2023/05/13 05:31:34;;;;;;;20.67;16.70;;;11.40;99.90;;;;;;5042948;28;20501;-64
2023/05/13 05:34:00;;;;;;;22.60;15.45;;;11.40;99.90;;;;;;5036836;28;20324;-65
2023/05/13 05:36:27;;;;;;;22.17;16.60;;;11.50;99.90;;;;;;5037443;28;20049;-65
2023/05/13 05:38:53;;;;;;;24.92;16.48;;;11.60;99.90;;;;;;5041751;28;20163;-65
2023/05/13 05:41:18;;;;;;;22.20;16.10;;;11.70;99.90;;;;;;5039171;28;20493;-65
2023/05/13 05:43:44;;;;;;;23.52;16.88;;;11.80;99.90;;;;;;5037822;28;20049;-65
2023/05/13 05:46:09;;;;;;;22.63;16.42;;;11.90;99.90;;;;;;5020100;28;20107;-65
2023/05/13 05:48:35;;;;;;;21.92;16.60;;;12.00;99.90;;;;;;5036995;28;20041;-65
2023/05/13 05:51:01;;;;;;;25.00;16.88;;;12.10;99.90;;;;;;5058749;28;20032;-65
2023/05/13 05:53:26;;;;;;;22.88;17.08;;;12.20;99.90;;;;;;5039307;28;20041;-65
2023/05/13 05:55:52;;;;;;;20.98;16.42;;;12.40;99.90;;;;;;5038350;28;20052;-65
2023/05/13 05:58:17;;;;;;;20.15;15.60;;;12.50;99.90;;;;;;5039503;28;20059;-64
2023/05/13 06:00:43;;;;;;;19.10;15.13;;;12.60;99.90;;;;;;5040443;28;20175;-64
2023/05/13 06:03:09;;;;;;;19.63;15.55;;;12.70;99.90;;;;;;5065323;28;20044;-64
2023/05/13 06:05:34;;;;;;;21.17;15.77;;;12.80;99.90;;;;;;5038886;28;20029;-64
2023/05/13 06:08:00;;;;;;;19.70;14.88;;;12.90;99.90;;;;;;5036015;28;20147;-65
2023/05/13 06:10:25;;;;;;;20.10;15.00;;;13.00;99.90;;;;;;5039667;28;20047;-65
2023/05/13 06:12:51;;;;;;;21.85;15.57;;;13.10;99.90;;;;;;5036682;28;20037;-65
2023/05/13 06:15:17;;;;;;;21.02;15.10;;;13.20;99.90;;;;;;5033564;28;20072;-65
2023/05/13 06:17:42;;;;;;;17.90;14.43;;;13.40;99.90;;;;;;5035332;28;20545;-66
2023/05/13 06:20:08;;;;;;;19.50;14.63;;;13.50;99.90;;;;;;5040852;28;20487;-64
2023/05/13 06:22:34;;;;;;;19.00;14.23;;;13.60;99.90;;;;;;5042789;28;20122;-66
2023/05/13 06:24:59;;;;;;;17.73;14.68;;;13.70;99.90;;;;;;5040072;28;20040;-65
2023/05/13 06:27:25;;;;;;;20.10;14.68;;;13.80;99.90;;;;;;5034699;28;20574;-65
2023/05/13 06:29:50;;;;;;;18.35;14.15;;;14.00;99.90;;;;;;5037468;28;20515;-65
2023/05/13 06:32:16;;;;;;;22.65;14.38;;;14.10;99.90;;;;;;5038205;28;20114;-65
2023/05/13 06:34:45;;;;;;;19.77;14.55;;;14.20;99.90;;;;;;5064531;28;20037;-65
2023/05/13 06:37:14;;;;;;;17.42;14.43;;;14.30;99.90;;;;;;5042051;28;20048;-66
2023/05/13 06:39:39;;;;;;;18.08;13.90;;;14.40;99.90;;;;;;5041561;28;20115;-65
2023/05/13 06:42:05;;;;;;;19.15;14.48;;;14.50;99.90;;;;;;5039052;28;20124;-66
2023/05/13 06:44:31;;;;;;;16.33;13.38;;;14.50;99.90;;;;;;5042306;28;20127;-66
2023/05/13 06:46:56;;;;;;;18.75;13.52;;;14.60;99.90;;;;;;5041569;28;20544;-66
2023/05/13 06:49:25;;;;;;;18.38;13.20;;;14.70;99.90;;;;;;5045167;28;20106;-63
2023/05/13 06:51:51;;;;;;;16.55;13.43;;;14.80;99.90;;;;;;5038354;28;20060;-65
2023/05/13 06:54:16;;;;;;;19.23;13.40;;;14.90;99.90;;;;;;5042201;28;20041;-65
2023/05/13 06:56:42;;;;;;;20.95;13.52;;;14.90;99.90;;;;;;5046205;28;20082;-66
2023/05/13 06:59:08;;;;;;;17.60;13.07;;;15.00;99.90;;;;;;5039413;28;20071;-66
2023/05/13 07:01:33;;;;;;;15.80;13.27;;;15.10;99.90;;;;;;5044128;28;20044;-66
2023/05/13 07:03:59;;;;;;;17.33;12.30;;;15.20;99.90;;;;;;5042524;28;20041;-65
2023/05/13 07:06:24;;;;;;;18.38;12.45;;;15.20;99.90;;;;;;5045287;28;20041;-66
2023/05/13 07:08:50;;;;;;;18.80;13.00;;;15.20;99.90;;;;;;5026545;28;20044;-65
2023/05/13 07:11:15;;;;;;;15.85;12.98;;;15.10;99.90;;;;;;5045134;28;20516;-65
2023/05/13 07:13:41;;;;;;;19.92;12.85;;;15.00;99.90;;;;;;5044197;28;20432;-66
2023/05/13 07:16:06;;;;;;;19.58;13.23;;;15.00;99.90;;;;;;5034386;28;20037;-65
2023/05/13 07:18:32;;;;;;;16.50;12.88;;;14.90;99.90;;;;;;5029703;28;20071;-65
2023/05/13 07:20:58;;;;;;;16.92;12.60;;;14.90;99.90;;;;;;5041091;28;20048;-66
2023/05/13 07:23:23;;;;;;;15.35;12.40;;;14.90;99.90;;;;;;5037565;28;20511;-66
2023/05/13 07:25:50;;;;;;;18.65;12.38;;;15.10;99.90;;;;;;5040248;28;20044;-65
2023/05/13 07:28:18;;;;;;;18.35;12.05;;;15.20;99.90;;;;;;5037395;28;20480;-65
2023/05/13 07:30:44;;;;;;;16.08;13.15;;;15.40;99.90;;;;;;5034886;28;20496;-65
2023/05/13 07:33:10;;;;;;;16.25;12.52;;;15.40;99.90;;;;;;5037094;28;20163;-65
2023/05/13 07:35:36;;;;;;;16.85;12.32;;;15.50;99.90;;;;;;5038485;28;20048;-65
2023/05/13 07:38:02;;;;;;;13.95;11.07;;;15.70;99.90;;;;;;5032265;28;20467;-65
2023/05/13 07:40:27;;;;;;;18.48;12.32;;;15.80;99.90;;;;;;5047604;28;20060;-64
2023/05/13 07:42:53;;;;;;;14.95;11.95;;;16.00;99.90;;;;;;5034425;28;20044;-65
2023/05/13 07:45:18;;;;;;;14.73;11.32;;;16.10;99.90;;;;;;5044537;28;20052;-64
2023/05/13 07:47:44;;;;;;;17.35;11.60;;;16.30;99.90;;;;;;5036506;28;20041;-65
2023/05/13 07:50:10;;;;;;;14.52;10.77;;;16.40;99.90;;;;;;5044522;28;20685;-65
2023/05/13 07:52:35;;;;;;;16.63;10.85;;;16.60;99.90;;;;;;5037020;28;20042;-65
2023/05/13 07:55:01;;;;;;;14.75;11.15;;;16.70;99.90;;;;;;5050558;28;20491;-64
2023/05/13 07:57:26;;;;;;;13.07;10.32;;;16.80;99.90;;;;;;5037633;28;20183;-64
2023/05/13 07:59:53;;;;;;;12.35;10.02;;;17.00;99.90;;;;;;5042632;28;20123;-64
2023/05/13 08:02:19;;;;;;;14.40;10.43;;;17.10;99.90;;;;;;5041707;28;20471;-65
2023/05/13 08:04:45;;;;;;;15.88;10.30;;;17.30;99.90;;;;;;5042402;28;20037;-64
2023/05/13 08:07:10;;;;;;;16.30;10.25;;;17.40;99.90;;;;;;5033692;28;20550;-64
2023/05/13 08:09:36;;;;;;;12.18;8.68;;;17.50;99.90;;;;;;5043681;28;20041;-65
2023/05/13 08:12:02;;;;;;;13.65;8.98;;;17.60;99.90;;;;;;5047244;28;20585;-65
2023/05/13 08:14:28;;;;;;;10.23;8.45;;;17.70;99.90;;;;;;5046265;28;20045;-65
2023/05/13 08:16:53;;;;;;;11.80;8.65;;;17.80;99.90;;;;;;5048213;28;21183;-65
2023/05/13 08:19:19;;;;;;;14.98;8.32;;;17.90;99.90;;;;;;5028982;28;20045;-65
2023/05/13 08:21:45;;;;;;;13.95;9.02;;;18.00;99.90;;;;;;5017711;28;20045;-64
2023/05/13 08:24:11;;;;;;;11.55;9.07;;;18.10;99.90;;;;;;5046316;28;20327;-64
2023/05/13 08:26:36;;;;;;;11.32;8.50;;;18.20;99.90;;;;;;5048228;28;20083;-64
2023/05/13 08:29:02;;;;;;;10.52;7.53;;;18.30;99.90;;;;;;5040875;28;20478;-64
2023/05/13 08:31:28;;;;;;;9.95;7.88;;;18.40;99.90;;;;;;5047421;28;20090;-65
2023/05/13 08:33:54;;;;;;;8.73;7.15;;;18.50;99.90;;;;;;5048215;28;20037;-65
2023/05/13 08:36:21;;;;;;;9.85;8.10;;;18.60;99.90;;;;;;5048989;28;20052;-64
2023/05/13 08:38:47;;;;;;;13.57;9.02;;;18.70;99.90;;;;;;5044591;28;20057;-64
2023/05/13 08:41:14;;;;;;;11.20;8.63;;;18.80;99.90;;;;;;5050473;28;20036;-64
2023/05/13 08:43:42;;;;;;;10.90;8.80;;;18.80;99.90;;;;;;5045634;28;20037;-64
2023/05/13 08:46:11;;;;;;;8.45;7.07;;;18.90;99.90;;;;;;5063405;28;20048;-65
2023/05/13 08:48:41;;;;;;;8.60;7.10;;;19.00;99.90;;;;;;5041240;28;20132;-65
2023/05/13 08:51:07;;;;;;;10.82;7.03;;;19.20;99.90;;;;;;5048602;28;20048;-64
2023/05/13 08:53:34;;;;;;;9.25;6.63;;;19.20;99.90;;;;;;5048066;28;20395;-64
2023/05/13 08:56:00;;;;;;;9.35;6.78;;;19.30;99.90;;;;;;5049428;28;20064;-64
2023/05/13 08:58:26;;;;;;;10.57;7.68;;;19.40;99.90;;;;;;5038770;28;20555;-64
2023/05/13 09:00:55;;;;;;;12.77;7.53;;;19.40;99.90;;;;;;5040874;28;20068;-64
2023/05/13 09:03:20;;;;;;;11.23;8.02;;;19.50;99.90;;;;;;5034616;28;20048;-65
2023/05/13 09:05:47;;;;;;;14.48;8.95;;;19.60;99.90;;;;;;5046167;28;20040;-64
2023/05/13 09:08:14;;;;;;;12.18;8.90;;;19.60;99.90;;;;;;5043433;28;20602;-65
2023/05/13 09:10:39;;;;;;;10.57;8.13;;;19.70;99.90;;;;;;5044512;28;20503;-65
2023/05/13 09:13:06;;;;;;;11.65;8.15;;;19.80;99.90;;;;;;5046125;28;20036;-65
2023/05/13 09:15:32;;;;;;;9.60;7.38;;;19.90;99.90;;;;;;5044584;28;20037;-65
2023/05/13 09:17:59;;;;;;;12.95;7.85;;;20.00;99.90;;;;;;5043028;28;20087;-64
2023/05/13 09:20:25;;;;;;;13.27;7.07;;;20.00;99.90;;;;;;5042320;28;20589;-64
2023/05/13 09:22:56;;;;;;;10.52;6.75;;;20.10;99.90;;;;;;5040599;28;20056;-65
2023/05/13 09:25:23;;;;;;;9.57;6.40;;;20.20;99.90;;;;;;5040563;28;20068;-65
2023/05/13 09:27:52;;;;;;;8.35;6.20;;;20.20;99.90;;;;;;5049659;28;20555;-64
2023/05/13 09:30:19;;;;;;;7.82;5.30;;;20.20;99.90;;;;;;5048598;28;20041;-65
2023/05/13 09:33:10;;;;;;;8.18;5.47;;;20.30;99.90;;;;;;5041582;28;20044;-66
2023/05/13 09:35:51;;;;;;;8.02;5.03;;;20.40;99.90;;;;;;5082101;28;20052;-64
2023/05/13 09:38:24;;;;;;;9.68;4.82;;;20.50;99.90;;;;;;5043561;28;20048;-64
2023/05/13 09:40:50;;;;;;;7.35;4.93;;;20.50;99.90;;;;;;5046394;28;20045;-65
2023/05/13 09:43:20;;;;;;;6.15;4.63;;;20.60;99.90;;;;;;5046218;28;20053;-65
2023/05/13 09:45:46;;;;;;;8.13;4.68;;;20.60;99.90;;;;;;5072590;28;20064;-65
2023/05/13 09:48:13;;;;;;;5.63;4.70;;;20.70;99.90;;;;;;5048149;28;20091;-65
2023/05/13 09:50:50;;;;;;;8.57;4.90;;;20.70;99.90;;;;;;5073363;28;20052;-64
2023/05/13 09:53:16;;;;;;;5.45;4.50;;;20.80;99.90;;;;;;5037095;28;20588;-65
2023/05/13 09:55:53;;;;;;;6.00;4.88;;;20.90;99.90;;;;;;5047441;28;20036;-64
2023/05/13 09:58:19;;;;;;;6.05;4.75;;;20.90;99.90;;;;;;5047175;28;20045;-65
2023/05/13 10:00:46;;;;;;;7.07;4.55;;;21.00;99.90;;;;;;5075677;28;20048;-63
2023/05/13 10:03:11;;;;;;;8.93;5.00;;;21.00;99.90;;;;;;5042250;28;20041;-65
2023/05/13 10:05:40;;;;;;;8.65;4.85;;;21.20;99.90;;;;;;5044022;28;20151;-65
2023/05/13 10:08:11;;;;;;;5.88;4.70;;;21.20;99.90;;;;;;5047107;28;20040;-64
2023/05/13 10:10:38;;;;;;;7.78;4.32;;;21.30;99.90;;;;;;5047857;28;20041;-64
2023/05/13 10:13:12;;;;;;;8.77;4.97;;;21.30;99.90;;;;;;5044131;28;20084;-64
2023/05/13 10:15:51;;;;;;;7.35;4.60;;;21.40;99.90;;;;;;5049943;28;20040;-65
2023/05/13 10:18:18;;;;;;;7.38;5.07;;;21.50;99.90;;;;;;5044320;28;20044;-64
2023/05/13 10:20:44;;;;;;;5.30;4.70;;;21.40;99.90;;;;;;5041851;28;20132;-65
2023/05/13 10:23:10;;;;;;;9.90;4.38;;;21.50;99.90;;;;;;5054090;28;20044;-65
2023/05/13 10:25:37;;;;;;;7.68;4.53;;;21.50;99.90;;;;;;5048478;28;20476;-65
2023/05/13 10:28:04;;;;;;;6.55;4.68;;;21.60;99.90;;;;;;5047850;28;20041;-66
2023/05/13 10:30:31;;;;;;;6.85;4.65;;;21.50;99.90;;;;;;5047334;28;20037;-67
2023/05/13 10:32:57;;;;;;;7.95;4.68;;;21.60;99.90;;;;;;5037043;28;20047;-64
2023/05/13 10:35:28;;;;;;;7.93;4.63;;;21.60;99.90;;;;;;5074320;28;20037;-64
2023/05/13 10:38:16;;;;;;;6.72;4.47;;;21.60;99.90;;;;;;5042659;28;20094;-66
2023/05/13 10:41:03;;;;;;;7.82;4.88;;;21.60;99.90;;;;;;5044768;28;20037;-64
2023/05/13 10:43:31;;;;;;;7.43;4.55;;;21.70;99.90;;;;;;5044407;28;20041;-63
2023/05/13 10:46:05;;;;;;;6.45;4.60;;;21.80;99.90;;;;;;5074943;28;20388;-64
2023/05/13 10:48:42;;;;;;;5.00;4.43;;;21.80;99.90;;;;;;5043139;28;20110;-64
2023/05/13 10:51:12;;;;;;;6.85;4.35;;;21.90;99.90;;;;;;5053659;28;20064;-64
2023/05/13 10:53:50;;;;;;;6.05;4.30;;;21.90;99.90;;;;;;5057837;28;20926;-65
2023/05/13 10:56:21;;;;;;;7.70;4.88;;;22.00;99.90;;;;;;5042374;28;20068;-64
2023/05/13 10:59:01;;;;;;;8.52;4.72;;;22.00;99.90;;;;;;5070996;28;20654;-64
2023/05/13 11:01:33;;;;;;;5.32;4.65;;;22.00;99.90;;;;;;5043559;28;20492;-63
2023/05/13 11:04:03;;;;;;;6.47;4.78;;;21.90;99.90;;;;;;5041570;28;20033;-64
2023/05/13 11:06:37;;;;;;;7.25;5.03;;;21.90;99.90;;;;;;5039991;28;20136;-63
2023/05/13 11:09:07;;;;;;;5.70;4.80;;;21.90;99.90;;;;;;5036594;28;20068;-64
2023/05/13 11:11:35;;;;;;;9.85;4.50;;;22.00;99.90;;;;;;5071159;28;20086;-64
2023/05/13 11:14:21;;;;;;;6.20;5.22;;;22.00;99.90;;;;;;5078449;28;20395;-64
2023/05/13 11:16:47;;;;;;;8.32;4.38;;;22.00;99.90;;;;;;5046292;28;20038;-66
2023/05/13 11:19:29;;;;;;;9.00;4.30;;;22.20;99.90;;;;;;5038052;28;20045;-64
2023/05/13 11:22:16;;;;;;;6.75;4.25;;;22.20;99.90;;;;;;5081722;28;20045;-64
2023/05/13 11:25:05;;;;;;;8.25;4.45;;;22.30;99.90;;;;;;5030856;28;20404;-63
2023/05/13 11:27:41;;;;;;;6.97;4.43;;;22.40;99.90;;;;;;5040134;28;20045;-63
2023/05/13 11:30:40;;;;;;;7.05;4.55;;;22.30;99.90;;;;;;5043674;28;20044;-64
2023/05/13 11:33:11;;;;;;;4.93;4.00;;;22.00;99.90;;;;;;5024254;28;20128;-64
2023/05/13 11:35:36;;;;;;;7.03;4.18;;;21.70;99.90;;;;;;5047027;28;20123;-63
2023/05/13 11:38:02;;;;;;;7.68;4.78;;;21.80;99.90;;;;;;5043256;28;20136;-64
2023/05/13 11:40:33;;;;;;;6.97;4.13;;;21.90;99.90;;;;;;5044717;28;20390;-64
2023/05/13 11:42:59;;;;;;;4.70;3.75;;;21.90;99.20;;;;;;5043888;28;20511;-64
2023/05/13 11:45:26;;;;;;;7.05;4.50;;;22.00;99.40;;;;;;5036133;28;20068;-64
2023/05/13 11:47:52;;;;;;;4.50;3.75;;;22.00;99.50;;;;;;5044769;28;20449;-65
2023/05/13 11:50:25;;;;;;;8.07;4.00;;;21.90;99.00;;;;;;5069084;28;20033;-63
2023/05/13 11:52:56;;;;;;;5.70;3.80;;;21.80;97.30;;;;;;5076824;28;20045;-63
2023/05/13 11:55:28;;;;;;;4.20;3.80;;;21.70;97.60;;;;;;5080652;28;20048;-64
2023/05/13 11:57:54;;;;;;;5.55;4.38;;;21.80;99.20;;;;;;5045701;28;20033;-63
2023/05/13 12:00:27;;;;;;;6.28;4.18;;;21.70;99.40;;;;;;5064778;28;20064;-63
2023/05/13 12:02:54;;;;;;;8.63;4.00;;;21.60;99.60;;;;;;5041935;28;20115;-63
2023/05/13 12:05:20;;;;;;;4.75;4.22;;;21.40;99.70;;;;;;5044672;28;20045;-67
2023/05/13 12:07:46;;;;;;;5.07;4.05;;;21.40;99.90;;;;;;5042549;28;20044;-63
2023/05/13 12:10:11;;;;;;;5.78;3.80;;;21.40;99.90;;;;;;5045284;28;20480;-61
2023/05/13 12:12:39;;;;;;;10.05;4.70;;;21.70;99.90;;;;;;5038461;28;20451;-64
2023/05/13 12:15:13;;;;;;;7.68;4.15;;;21.80;99.90;;;;;;5050345;28;20037;-63
2023/05/13 12:17:39;;;;;;;6.65;3.80;;;22.00;97.70;;;;;;5044892;28;20539;-63
2023/05/13 12:20:11;;;;;;;5.88;3.63;;;22.20;99.20;;;;;;5046787;28;20124;-64
2023/05/13 12:22:43;;;;;;;5.65;3.83;;;22.30;99.00;;;;;;5046632;28;20164;-64
2023/05/13 12:25:47;;;;;;;6.15;4.35;;;22.30;97.10;;;;;;5072811;28;20060;-64
2023/05/13 12:28:22;;;;;;;9.20;4.20;;;22.30;98.70;;;;;;5043714;28;20037;-64
2023/05/13 12:30:52;;;;;;;7.70;4.32;;;22.40;98.80;;;;;;5047775;28;20094;-64
2023/05/13 12:33:20;;;;;;;8.88;4.30;;;22.50;98.40;;;;;;5045974;28;20079;-63
2023/05/13 12:35:48;;;;;;;6.55;4.30;;;22.60;97.10;;;;;;5043760;28;20041;-63
2023/05/13 12:38:19;;;;;;;4.97;3.65;;;22.60;97.10;;;;;;5044195;28;20075;-64